createdAt,value
2017-11-19T00:00:16.200Z,21.60
2017-11-19T00:02:43.588Z,22.00
2017-11-19T00:05:10.989Z,24.97
2017-11-19T00:07:38.444Z,22.13
2017-11-19T00:10:05.841Z,21.93
2017-11-19T00:12:33.227Z,23.73
2017-11-19T00:15:00.628Z,23.53
2017-11-19T00:17:28.021Z,21.87
2017-11-19T00:19:55.412Z,23.83
2017-11-19T00:22:22.799Z,23.00
2017-11-19T00:24:50.203Z,22.60
2017-11-19T00:27:17.595Z,25.27
2017-11-19T00:29:44.983Z,25.50
2017-11-19T00:32:12.383Z,26.43
2017-11-19T00:34:39.784Z,25.43
2017-11-19T00:37:07.174Z,25.20
2017-11-19T00:39:34.572Z,26.10
2017-11-19T00:42:01.976Z,24.20
2017-11-19T00:44:29.379Z,24.97
2017-11-19T00:46:56.772Z,25.20
2017-11-19T00:49:24.168Z,26.30
2017-11-19T00:51:51.555Z,25.80
2017-11-19T00:54:18.957Z,26.40
2017-11-19T00:56:46.340Z,25.20
2017-11-19T00:59:13.783Z,25.83
2017-11-19T01:01:41.180Z,25.83
2017-11-19T01:04:08.596Z,24.07
2017-11-19T01:06:35.997Z,22.77
2017-11-19T01:09:03.385Z,21.23
2017-11-19T01:11:30.783Z,20.77
2017-11-19T01:13:58.193Z,17.73
2017-11-19T01:16:25.589Z,18.60
2017-11-19T01:18:52.980Z,19.43
2017-11-19T01:21:20.387Z,20.07
2017-11-19T01:23:47.767Z,19.93
2017-11-19T01:26:15.167Z,20.10
2017-11-19T01:28:42.563Z,19.43
2017-11-19T01:31:09.961Z,20.60
2017-11-19T01:33:37.353Z,19.33
2017-11-19T01:36:04.748Z,18.53
2017-11-19T01:38:32.143Z,19.90
2017-11-19T01:40:59.531Z,19.30
2017-11-19T01:43:26.923Z,19.10
2017-11-19T01:45:54.320Z,18.43
2017-11-19T01:48:21.724Z,19.07
2017-11-19T01:50:49.119Z,18.43
2017-11-19T01:53:16.508Z,19.23
2017-11-19T01:55:43.905Z,19.40
2017-11-19T01:58:11.292Z,19.17
2017-11-19T02:00:38.689Z,19.63
2017-11-19T02:03:06.075Z,18.57
2017-11-19T02:05:33.485Z,19.63
2017-11-19T02:08:00.880Z,18.83
2017-11-19T02:10:28.270Z,18.17
2017-11-19T02:12:55.667Z,18.73
2017-11-19T02:15:23.051Z,18.90
2017-11-19T02:17:50.457Z,18.10
2017-11-19T02:20:17.839Z,18.20
2017-11-19T02:22:45.240Z,17.87
2017-11-19T02:25:12.631Z,19.20
2017-11-19T02:27:40.035Z,17.70
2017-11-19T02:30:07.454Z,17.30
2017-11-19T02:32:34.816Z,17.80
2017-11-19T02:35:02.219Z,18.67
2017-11-19T02:37:29.619Z,19.33
2017-11-19T02:39:57.008Z,18.37
2017-11-19T02:42:24.407Z,18.30
2017-11-19T02:44:51.800Z,18.70
2017-11-19T02:47:19.196Z,18.40
2017-11-19T02:49:46.599Z,18.90
2017-11-19T02:52:13.992Z,18.07
2017-11-19T02:54:41.380Z,18.93
2017-11-19T02:57:08.787Z,18.43
2017-11-19T02:59:36.179Z,20.07
2017-11-19T03:02:03.576Z,18.53
2017-11-19T03:04:30.979Z,19.27
2017-11-19T03:06:58.384Z,18.87
2017-11-19T03:09:25.779Z,18.07
2017-11-19T03:11:53.184Z,17.83
2017-11-19T03:14:20.604Z,18.57
2017-11-19T03:16:48.000Z,18.73
2017-11-19T03:19:15.396Z,19.20
2017-11-19T03:21:43.120Z,19.97
2017-11-19T03:24:10.507Z,19.60
2017-11-19T03:26:37.903Z,19.53
2017-11-19T03:29:05.307Z,19.20
2017-11-19T03:31:33.159Z,20.10
2017-11-19T03:34:00.548Z,19.63
2017-11-19T03:36:27.973Z,18.80
2017-11-19T03:38:55.360Z,18.80
2017-11-19T03:41:22.753Z,19.30
2017-11-19T03:43:50.160Z,18.90
2017-11-19T03:46:17.552Z,17.53
2017-11-19T03:48:44.951Z,18.87
2017-11-19T03:51:12.385Z,17.77
2017-11-19T03:53:39.788Z,19.50
2017-11-19T03:56:07.187Z,17.93
2017-11-19T03:58:34.590Z,18.70
2017-11-19T04:01:01.989Z,18.73
2017-11-19T04:03:29.381Z,17.67
2017-11-19T04:05:56.785Z,18.50
2017-11-19T04:08:24.172Z,18.10
2017-11-19T04:10:51.576Z,17.27
2017-11-19T04:13:18.991Z,17.47
2017-11-19T04:15:46.382Z,18.20
2017-11-19T04:18:13.772Z,16.60
2017-11-19T04:20:41.208Z,16.20
2017-11-19T04:23:08.594Z,16.50
2017-11-19T04:25:36.011Z,15.65
2017-11-19T04:28:03.447Z,17.15
2017-11-19T04:30:30.856Z,16.45
2017-11-19T04:32:58.248Z,16.67
2017-11-19T04:35:25.667Z,15.90
2017-11-19T04:37:53.055Z,16.50
2017-11-19T04:40:20.460Z,16.20
2017-11-19T04:42:47.866Z,16.60
2017-11-19T04:45:15.254Z,17.00
2017-11-19T04:47:42.656Z,16.73
2017-11-19T04:50:10.063Z,16.35
2017-11-19T04:52:37.455Z,16.80
2017-11-19T04:55:04.842Z,16.77
2017-11-19T04:57:32.266Z,15.67
2017-11-19T04:59:59.656Z,16.43
2017-11-19T05:02:27.056Z,17.30
2017-11-19T05:04:54.471Z,16.40
2017-11-19T05:07:21.863Z,17.70
2017-11-19T05:09:49.269Z,18.05
2017-11-19T05:12:16.708Z,17.00
2017-11-19T05:14:44.109Z,17.23
2017-11-19T05:17:11.516Z,16.58
2017-11-19T05:19:38.928Z,17.95
2017-11-19T05:22:06.329Z,16.00
2017-11-19T05:24:33.737Z,17.42
2017-11-19T05:27:01.139Z,15.60
2017-11-19T05:29:28.539Z,17.10
2017-11-19T05:31:55.934Z,18.17
2017-11-19T05:34:23.348Z,17.05
2017-11-19T05:36:50.748Z,15.68
2017-11-19T05:39:18.149Z,15.77
2017-11-19T05:41:45.569Z,15.82
2017-11-19T05:44:12.972Z,16.23
2017-11-19T05:46:40.379Z,16.37
2017-11-19T05:49:07.804Z,16.90
2017-11-19T05:51:35.206Z,16.42
2017-11-19T05:54:02.607Z,15.73
2017-11-19T05:56:30.014Z,16.23
2017-11-19T05:58:57.407Z,16.00
2017-11-19T06:01:24.816Z,15.73
2017-11-19T06:03:52.232Z,17.30
2017-11-19T06:06:19.643Z,15.13
2017-11-19T06:08:47.044Z,15.40
2017-11-19T06:11:14.459Z,16.13
2017-11-19T06:13:41.870Z,14.07
2017-11-19T06:16:09.255Z,14.73
2017-11-19T06:18:36.660Z,14.33
2017-11-19T06:21:04.051Z,15.07
2017-11-19T06:23:31.450Z,14.68
2017-11-19T06:25:58.883Z,14.50
2017-11-19T06:28:26.279Z,14.38
2017-11-19T06:30:53.675Z,13.30
2017-11-19T06:33:21.080Z,14.00
2017-11-19T06:35:48.469Z,13.93
2017-11-19T06:38:15.868Z,14.73
2017-11-19T06:40:43.264Z,13.03
2017-11-19T06:43:10.682Z,14.13
2017-11-19T06:45:38.079Z,13.97
2017-11-19T06:48:05.503Z,13.40
2017-11-19T06:50:32.913Z,14.30
2017-11-19T06:53:00.361Z,13.80
2017-11-19T06:55:27.788Z,14.63
2017-11-19T06:57:55.189Z,14.03
2017-11-19T07:00:22.579Z,14.48
2017-11-19T07:02:49.979Z,12.77
2017-11-19T07:05:17.369Z,12.27
2017-11-19T07:07:44.764Z,13.27
2017-11-19T07:10:12.184Z,13.00
2017-11-19T07:12:39.589Z,12.33
2017-11-19T07:15:06.991Z,13.07
2017-11-19T07:17:34.527Z,12.10
2017-11-19T07:20:01.916Z,11.90
2017-11-19T07:22:29.313Z,12.73
2017-11-19T07:24:56.727Z,12.03
2017-11-19T07:27:24.117Z,12.50
2017-11-19T07:29:51.503Z,11.90
2017-11-19T07:32:18.913Z,11.97
2017-11-19T07:34:46.308Z,11.43
2017-11-19T07:37:13.702Z,10.67
2017-11-19T07:39:41.113Z,10.95
2017-11-19T07:42:09.167Z,11.10
2017-11-19T07:44:36.577Z,11.27
2017-11-19T07:47:03.976Z,11.03
2017-11-19T07:49:31.367Z,10.10
2017-11-19T07:51:58.756Z,11.10
2017-11-19T07:54:26.160Z,11.03
2017-11-19T07:56:53.553Z,11.23
2017-11-19T07:59:20.936Z,11.80
2017-11-19T08:01:48.336Z,11.20
2017-11-19T08:04:15.731Z,11.00
2017-11-19T08:06:43.124Z,10.57
2017-11-19T08:09:10.520Z,9.80
2017-11-19T08:11:37.919Z,9.90
2017-11-19T08:14:05.319Z,10.03
2017-11-19T08:16:32.719Z,9.67
2017-11-19T08:19:00.117Z,9.67
2017-11-19T08:21:27.505Z,10.03
2017-11-19T08:23:54.903Z,10.53
2017-11-19T08:26:22.299Z,9.30
2017-11-19T08:28:49.687Z,9.63
2017-11-19T08:31:17.095Z,10.10
2017-11-19T08:33:44.480Z,9.77
2017-11-19T08:36:11.871Z,9.80
2017-11-19T08:38:39.283Z,9.87
2017-11-19T08:41:06.656Z,8.90
2017-11-19T08:43:34.039Z,10.10
2017-11-19T08:46:01.439Z,10.20
2017-11-19T08:48:28.850Z,9.60
2017-11-19T08:50:56.233Z,10.17
2017-11-19T08:53:23.629Z,9.83
2017-11-19T08:55:51.009Z,8.87
2017-11-19T08:58:18.397Z,9.60
2017-11-19T09:00:45.791Z,10.30
2017-11-19T09:03:13.174Z,9.50
2017-11-19T09:05:40.568Z,9.83
2017-11-19T09:08:07.989Z,10.00
2017-11-19T09:10:35.440Z,9.40
2017-11-19T09:13:02.816Z,9.57
2017-11-19T09:15:30.219Z,9.83
2017-11-19T09:17:57.615Z,9.63
2017-11-19T09:20:25.007Z,9.10
2017-11-19T09:22:52.403Z,9.40
2017-11-19T09:25:19.791Z,9.30
2017-11-19T09:27:47.180Z,9.00
2017-11-19T09:30:14.603Z,9.73
2017-11-19T09:32:42.000Z,10.00
2017-11-19T09:35:09.412Z,9.37
2017-11-19T09:37:36.819Z,10.30
2017-11-19T09:40:04.212Z,9.10
2017-11-19T09:42:31.597Z,9.13
2017-11-19T09:44:58.992Z,8.97
2017-11-19T09:47:26.379Z,9.53
2017-11-19T09:49:53.776Z,9.30
2017-11-19T09:52:21.181Z,9.30
2017-11-19T09:54:48.563Z,8.67
2017-11-19T09:57:15.949Z,8.83
2017-11-19T09:59:43.348Z,9.00
2017-11-19T10:02:10.739Z,8.70
2017-11-19T10:04:38.140Z,8.50
2017-11-19T10:07:05.547Z,7.47
2017-11-19T10:09:32.936Z,7.80
2017-11-19T10:12:00.318Z,7.63
2017-11-19T10:14:27.736Z,7.90
2017-11-19T10:16:55.129Z,7.80
2017-11-19T10:19:22.595Z,9.93
2017-11-19T10:21:49.999Z,8.17
2017-11-19T10:24:17.387Z,7.53
2017-11-19T10:26:44.779Z,7.50
2017-11-19T10:29:12.212Z,9.30
2017-11-19T10:31:39.595Z,8.90
2017-11-19T10:34:06.987Z,8.20
2017-11-19T10:36:34.379Z,9.80
2017-11-19T10:39:01.777Z,9.10
2017-11-19T10:41:29.163Z,7.93
2017-11-19T10:43:56.583Z,9.23
2017-11-19T10:46:24.851Z,8.50
2017-11-19T10:48:52.243Z,8.87
2017-11-19T10:51:19.659Z,8.53
2017-11-19T10:53:47.043Z,9.13
2017-11-19T10:56:14.431Z,8.40
2017-11-19T10:58:41.836Z,9.57
2017-11-19T11:01:09.984Z,9.30
2017-11-19T11:03:37.375Z,8.83
2017-11-19T11:06:04.822Z,8.37
2017-11-19T11:08:32.207Z,8.70
2017-11-19T11:10:59.593Z,8.20
2017-11-19T11:13:27.091Z,8.93
2017-11-19T11:15:54.479Z,9.23
2017-11-19T11:18:22.911Z,8.60
2017-11-19T11:20:50.315Z,8.53
2017-11-19T11:23:17.703Z,7.90
2017-11-19T11:25:45.101Z,8.23
2017-11-19T11:28:12.649Z,8.20
2017-11-19T11:30:40.025Z,8.20
2017-11-19T11:33:07.532Z,8.90
2017-11-19T11:35:34.923Z,8.57
2017-11-19T11:38:02.303Z,9.43
2017-11-19T11:40:29.691Z,8.13
2017-11-19T11:42:57.090Z,8.40
2017-11-19T11:45:24.480Z,8.80
2017-11-19T11:47:51.871Z,8.77
2017-11-19T11:50:20.090Z,9.23
2017-11-19T11:52:47.479Z,9.20
2017-11-19T11:55:14.873Z,10.17
2017-11-19T11:57:42.292Z,10.20
2017-11-19T12:00:09.736Z,9.40
2017-11-19T12:02:37.124Z,9.17
2017-11-19T12:05:04.537Z,8.83
2017-11-19T12:07:31.925Z,9.17
2017-11-19T12:09:59.326Z,8.77
2017-11-19T12:12:26.729Z,9.53
2017-11-19T12:14:54.115Z,10.20
2017-11-19T12:17:23.524Z,9.07
2017-11-19T12:19:50.935Z,9.60
2017-11-19T12:22:18.320Z,8.40
2017-11-19T12:24:45.707Z,8.13
2017-11-19T12:27:13.113Z,8.10
2017-11-19T12:29:40.492Z,8.07
2017-11-19T12:32:07.889Z,7.93
2017-11-19T12:34:35.292Z,10.13
2017-11-19T12:37:02.681Z,8.90
2017-11-19T12:39:30.065Z,8.50
2017-11-19T12:41:57.459Z,8.83
2017-11-19T12:44:24.939Z,8.77
2017-11-19T12:46:52.337Z,8.90
2017-11-19T12:49:19.760Z,7.93
2017-11-19T12:51:47.156Z,8.80
2017-11-19T12:54:14.539Z,9.93
2017-11-19T12:56:41.964Z,10.60
2017-11-19T12:59:09.351Z,10.70
2017-11-19T13:01:36.748Z,11.40
2017-11-19T13:04:04.141Z,11.20
2017-11-19T13:06:31.532Z,11.60
2017-11-19T13:08:58.930Z,12.37
2017-11-19T13:11:26.351Z,12.20
2017-11-19T13:13:53.748Z,11.80
2017-11-19T13:16:21.136Z,10.40
2017-11-19T13:18:48.549Z,11.47
2017-11-19T13:21:15.941Z,9.17
2017-11-19T13:23:43.360Z,9.37
2017-11-19T13:26:10.744Z,8.83
2017-11-19T13:28:38.161Z,9.27
2017-11-19T13:31:05.543Z,11.10
2017-11-19T13:33:32.973Z,10.60
2017-11-19T13:36:00.360Z,10.53
2017-11-19T13:38:27.775Z,9.87
2017-11-19T13:40:55.224Z,10.00
2017-11-19T13:43:22.600Z,9.83
2017-11-19T13:45:49.996Z,10.77
2017-11-19T13:48:17.424Z,10.47
2017-11-19T13:50:44.820Z,10.67
2017-11-19T13:53:12.203Z,11.40
2017-11-19T13:55:39.607Z,11.07
2017-11-19T13:58:07.447Z,10.10
2017-11-19T14:00:34.827Z,10.77
2017-11-19T14:03:02.232Z,10.60
2017-11-19T14:05:29.622Z,10.50
2017-11-19T14:07:57.020Z,11.07
2017-11-19T14:10:24.423Z,10.60
2017-11-19T14:12:51.848Z,10.90
2017-11-19T14:15:19.229Z,9.60
2017-11-19T14:17:46.632Z,9.87
2017-11-19T14:20:14.015Z,10.30
2017-11-19T14:22:41.395Z,9.73
2017-11-19T14:25:08.792Z,9.80
2017-11-19T14:27:36.187Z,10.10
2017-11-19T14:30:03.572Z,9.57
2017-11-19T14:32:30.969Z,9.13
2017-11-19T14:34:58.360Z,8.93
2017-11-19T14:37:25.748Z,9.90
2017-11-19T14:39:53.148Z,9.77
2017-11-19T14:42:20.536Z,8.80
2017-11-19T14:44:47.912Z,8.70
2017-11-19T14:47:15.328Z,9.80
2017-11-19T14:49:42.716Z,9.00
2017-11-19T14:52:10.105Z,8.80
2017-11-19T14:54:37.504Z,10.20
2017-11-19T14:57:04.892Z,9.47
2017-11-19T14:59:32.281Z,10.07
2017-11-19T15:01:59.723Z,11.00
2017-11-19T15:04:27.174Z,10.70
2017-11-19T15:06:54.563Z,10.10
2017-11-19T15:09:22.847Z,10.83
2017-11-19T15:11:50.239Z,11.20
2017-11-19T15:14:17.626Z,11.23
2017-11-19T15:16:47.272Z,11.20
2017-11-19T15:19:14.660Z,11.67
2017-11-19T15:21:42.056Z,11.50
2017-11-19T15:24:09.463Z,12.03
2017-11-19T15:26:36.861Z,13.10
2017-11-19T15:29:04.297Z,13.20
2017-11-19T15:31:31.667Z,13.00
2017-11-19T15:33:59.115Z,12.77
2017-11-19T15:36:26.508Z,12.03
2017-11-19T15:38:53.916Z,13.30
2017-11-19T15:41:21.315Z,12.00
2017-11-19T15:43:48.703Z,12.37
2017-11-19T15:46:16.098Z,12.60
2017-11-19T15:48:43.491Z,11.80
2017-11-19T15:51:10.886Z,11.20
2017-11-19T15:53:38.312Z,11.90
2017-11-19T15:56:05.708Z,12.10
2017-11-19T15:58:34.531Z,12.63
2017-11-19T16:01:01.952Z,12.80
2017-11-19T16:03:29.352Z,12.97
2017-11-19T16:05:56.727Z,12.90
2017-11-19T16:08:24.131Z,14.63
2017-11-19T16:10:51.522Z,14.00
2017-11-19T16:13:18.914Z,13.83
2017-11-19T16:15:47.307Z,13.70
2017-11-19T16:18:14.708Z,14.53
2017-11-19T16:20:42.096Z,13.50
2017-11-19T16:23:09.523Z,14.10
2017-11-19T16:25:37.786Z,13.40
2017-11-19T16:28:05.195Z,12.50
2017-11-19T16:30:33.040Z,13.57
2017-11-19T16:33:00.428Z,13.30
2017-11-19T16:35:27.815Z,12.17
2017-11-19T16:37:55.917Z,12.03
2017-11-19T16:40:24.049Z,12.97
2017-11-19T16:42:51.440Z,11.40
2017-11-19T16:45:18.840Z,11.60
2017-11-19T16:47:46.298Z,12.60
2017-11-19T16:50:13.692Z,11.70
2017-11-19T16:52:41.112Z,11.07
2017-11-19T16:55:08.506Z,11.17
2017-11-19T16:57:35.896Z,11.60
2017-11-19T17:00:03.339Z,11.60
2017-11-19T17:02:31.927Z,11.60
2017-11-19T17:04:59.344Z,10.90
2017-11-19T17:07:26.769Z,12.00
2017-11-19T17:09:54.249Z,13.23
2017-11-19T17:12:21.673Z,12.50
2017-11-19T17:14:49.084Z,13.50
2017-11-19T17:17:16.471Z,12.50
2017-11-19T17:19:43.873Z,13.03
2017-11-19T17:22:11.340Z,13.10
2017-11-19T17:24:39.860Z,11.90
2017-11-19T17:27:14.379Z,12.10
2017-11-19T17:29:41.816Z,12.30
2017-11-19T17:32:09.213Z,12.07
2017-11-19T17:34:36.627Z,12.70
2017-11-19T17:37:04.055Z,13.87
2017-11-19T17:39:31.482Z,13.30
2017-11-19T17:41:58.876Z,12.50
2017-11-19T17:44:26.251Z,12.90
2017-11-19T17:46:53.698Z,13.83
2017-11-19T17:49:21.203Z,13.03
2017-11-19T17:51:48.597Z,12.07
2017-11-19T17:54:15.995Z,12.80
2017-11-19T17:56:43.412Z,12.23
2017-11-19T17:59:10.805Z,12.07
2017-11-19T18:01:38.199Z,12.77
2017-11-19T18:04:05.649Z,13.10
2017-11-19T18:06:33.052Z,13.20
2017-11-19T18:09:00.428Z,12.80
2017-11-19T18:11:28.054Z,15.57
2017-11-19T18:13:55.445Z,14.07
2017-11-19T18:16:28.591Z,10.50
2017-11-19T18:18:55.988Z,10.70
2017-11-19T18:21:23.373Z,9.70
2017-11-19T18:23:50.792Z,10.40
2017-11-19T18:26:18.187Z,10.30
2017-11-19T18:28:45.580Z,11.03
2017-11-19T18:31:12.979Z,11.40
2017-11-19T18:33:40.372Z,12.40
2017-11-19T18:36:07.762Z,12.97
2017-11-19T18:38:35.167Z,14.20
2017-11-19T18:41:02.560Z,13.07
2017-11-19T18:43:29.943Z,12.90
2017-11-19T18:45:57.346Z,13.53
2017-11-19T18:48:24.736Z,13.33
2017-11-19T18:50:52.124Z,14.40
2017-11-19T18:53:19.547Z,15.07
2017-11-19T18:55:46.940Z,14.47
2017-11-19T18:58:14.327Z,13.43
2017-11-19T19:00:41.732Z,15.10
2017-11-19T19:03:09.124Z,14.17
2017-11-19T19:05:36.513Z,14.27
2017-11-19T19:08:03.914Z,15.20
2017-11-19T19:10:31.314Z,14.90
2017-11-19T19:12:58.699Z,14.67
2017-11-19T19:15:26.100Z,15.20
2017-11-19T19:17:53.516Z,15.23
2017-11-19T19:20:20.959Z,14.23
2017-11-19T19:22:48.379Z,15.03
2017-11-19T19:25:15.771Z,15.47
2017-11-19T19:27:43.164Z,15.23
2017-11-19T19:30:10.587Z,15.00
2017-11-19T19:32:37.976Z,13.80
2017-11-19T19:35:05.368Z,13.93
2017-11-19T19:37:32.779Z,15.20
2017-11-19T19:40:00.168Z,13.40
2017-11-19T19:42:27.558Z,14.03
2017-11-19T19:45:02.160Z,15.90
2017-11-19T19:47:29.552Z,15.10
2017-11-19T19:49:56.943Z,14.17
2017-11-19T19:52:24.362Z,14.20
2017-11-19T19:55:05.111Z,14.73
2017-11-19T19:57:33.355Z,14.10
2017-11-19T20:00:00.747Z,13.97
2017-11-19T20:02:28.155Z,14.53
2017-11-19T20:04:55.569Z,14.13
2017-11-19T20:07:22.963Z,13.30
2017-11-19T20:09:50.384Z,13.90
2017-11-19T20:12:17.799Z,13.30
2017-11-19T20:14:45.211Z,13.67
2017-11-19T20:17:12.615Z,14.13
2017-11-19T20:19:40.028Z,12.90
2017-11-19T20:22:07.846Z,15.73
2017-11-19T20:24:35.258Z,13.27
2017-11-19T20:27:02.667Z,14.77
2017-11-19T20:29:30.068Z,13.80
2017-11-19T20:31:57.494Z,13.43
2017-11-19T20:34:24.977Z,13.03
2017-11-19T20:36:52.375Z,13.37
2017-11-19T20:39:19.772Z,13.60
2017-11-19T20:41:47.175Z,14.10
2017-11-19T20:44:14.572Z,14.20
2017-11-19T20:46:41.980Z,13.90
2017-11-19T20:49:09.391Z,14.70
2017-11-19T20:51:36.796Z,15.60
2017-11-19T20:54:04.198Z,14.23
2017-11-19T20:56:31.620Z,14.20
2017-11-19T20:58:59.011Z,14.67
2017-11-19T21:01:26.403Z,15.50
2017-11-19T21:03:53.824Z,14.97
2017-11-19T21:06:21.211Z,15.97
2017-11-19T21:08:48.608Z,14.60
2017-11-19T21:11:16.023Z,15.70
2017-11-19T21:13:43.416Z,13.77
2017-11-19T21:16:10.826Z,13.83
2017-11-19T21:18:38.236Z,14.90
2017-11-19T21:21:05.627Z,14.27
2017-11-19T21:23:33.019Z,14.40
2017-11-19T21:26:00.432Z,13.93
2017-11-19T21:28:27.815Z,14.47
2017-11-19T21:30:55.208Z,15.00
2017-11-19T21:33:22.607Z,14.50
2017-11-19T21:35:50.005Z,14.10
2017-11-19T21:38:17.391Z,14.83
2017-11-19T21:40:44.795Z,13.70
2017-11-19T21:43:12.186Z,14.67
2017-11-19T21:45:39.583Z,14.27
2017-11-19T21:48:06.987Z,14.40
2017-11-19T21:50:34.381Z,14.20
2017-11-19T21:53:01.767Z,13.67
2017-11-19T21:55:29.170Z,14.70
2017-11-19T21:57:56.556Z,15.23
2017-11-19T22:00:23.982Z,14.83
2017-11-19T22:02:51.399Z,13.90
2017-11-19T22:05:18.792Z,14.87
2017-11-19T22:07:46.192Z,14.80
2017-11-19T22:10:13.607Z,13.60
2017-11-19T22:12:41.003Z,14.20
2017-11-19T22:15:08.404Z,13.40
2017-11-19T22:17:35.803Z,14.70
2017-11-19T22:20:03.311Z,15.67
2017-11-19T22:22:30.691Z,14.10
2017-11-19T22:24:58.095Z,14.70
2017-11-19T22:27:25.501Z,14.40
2017-11-19T22:29:52.890Z,15.00
2017-11-19T22:32:20.324Z,14.30
2017-11-19T22:34:47.695Z,14.40
2017-11-19T22:37:15.093Z,14.90
2017-11-19T22:39:42.496Z,14.37
2017-11-19T22:42:09.891Z,14.50
2017-11-19T22:44:37.298Z,15.33
2017-11-19T22:47:04.724Z,15.83
2017-11-19T22:49:32.119Z,16.00
2017-11-19T22:51:59.524Z,14.77
2017-11-19T22:54:26.936Z,15.83
2017-11-19T22:56:54.331Z,14.97
2017-11-19T22:59:21.729Z,15.70
2017-11-19T23:01:49.152Z,15.97
2017-11-19T23:04:16.539Z,14.53
2017-11-19T23:06:43.927Z,15.67
2017-11-19T23:09:11.351Z,16.50
2017-11-19T23:11:38.749Z,15.10
2017-11-19T23:14:06.140Z,15.20
2017-11-19T23:16:33.564Z,15.70
2017-11-19T23:19:00.956Z,15.63
2017-11-19T23:21:28.340Z,16.10
2017-11-19T23:23:55.739Z,16.00
2017-11-19T23:26:23.135Z,16.43
2017-11-19T23:28:50.539Z,17.53
2017-11-19T23:31:17.941Z,18.57
2017-11-19T23:33:45.328Z,17.77
2017-11-19T23:36:12.719Z,18.20
2017-11-19T23:38:40.131Z,18.33
2017-11-19T23:41:07.527Z,19.30
2017-11-19T23:43:34.920Z,19.57
2017-11-19T23:46:02.325Z,18.90
2017-11-19T23:48:29.739Z,19.90
2017-11-19T23:50:57.124Z,19.73
2017-11-19T23:53:24.543Z,19.50
2017-11-19T23:55:51.948Z,19.57
2017-11-19T23:58:19.340Z,18.60
